Time;durP1;ratioP1;P1;durP2;ratioP2;P2;SDS_P1;SDS_P2;PMS_P1;PMS_P2;Temp;Humidity;BMP_temperature;BMP_pressure;BME280_temperature;BME280_humidity;BME280_pressure;Samples;Min_cycle;Max_cycle;Signal;HPM_P1;HPM_P2
2022/08/12 00:44:50;;;;;;;6.40;2.92;;;;;;;;;;4951991;28;20059;-71
2022/08/12 00:47:17;;;;;;;6.22;2.53;;;;;;;;;;4948819;28;20043;-71
2022/08/12 00:49:48;;;;;;;4.55;2.80;;;;;;;;;;4947923;28;20047;-72
2022/08/12 00:52:15;;;;;;;5.53;2.53;;;;;;;;;;4947689;28;20074;-71
2022/08/12 00:54:50;;;;;;;6.03;2.53;;;;;;;;;;4947819;28;20043;-70
2022/08/12 00:57:21;;;;;;;5.38;2.67;;;;;;;;;;4948387;28;20047;-71
2022/08/12 00:59:55;;;;;;;7.97;2.70;;;;;;;;;;4948314;28;20269;-72
2022/08/12 01:02:25;;;;;;;3.42;2.10;;;;;;;;;;4946368;28;20118;-70
2022/08/12 01:13:17;;;;;;;3.78;2.60;;;;;;;;;;4932995;29;20117;-71
2022/08/12 01:15:45;;;;;;;5.30;2.45;;;;;;;;;;4945385;28;21423;-72
2022/08/12 01:18:12;;;;;;;4.82;2.50;;;;;;;;;;4929823;29;20063;-71
2022/08/12 01:20:51;;;;;;;6.50;3.38;;;;;;;;;;4929035;29;20119;-72
2022/08/12 01:23:44;;;;;;;10.95;3.15;;;;;;;;;;4928024;29;20075;-71
2022/08/12 01:26:16;;;;;;;8.00;3.55;;;;;;;;;;4928726;29;20055;-72
2022/08/12 01:28:44;;;;;;;6.20;3.47;;;;;;;;;;4928357;29;20449;-71
2022/08/12 01:31:11;;;;;;;8.45;3.53;;;;;;;;;;4928251;29;20462;-71
2022/08/12 01:33:49;;;;;;;7.28;3.70;;;;;;;;;;4939722;28;20410;-71
2022/08/12 01:36:17;;;;;;;8.02;3.72;;;;;;;;;;4928389;29;20126;-70
2022/08/12 01:38:46;;;;;;;8.25;3.90;;;;;;;;;;4928693;29;20047;-72
2022/08/12 01:41:15;;;;;;;7.65;3.38;;;;;;;;;;4928450;29;20058;-71
2022/08/12 01:43:43;;;;;;;7.65;3.67;;;;;;;;;;4928549;29;20058;-71
2022/08/12 01:46:44;;;;;;;6.60;3.63;;;;;;;;;;4928938;29;20063;-72
2022/08/12 01:49:37;;;;;;;6.00;3.47;;;;;;;;;;4940050;28;20234;-71
2022/08/12 01:52:05;;;;;;;7.55;3.63;;;;;;;;;;4947926;28;20040;-71
2022/08/12 01:54:37;;;;;;;7.63;3.63;;;;;;;;;;4947837;28;20237;-72
2022/08/12 01:57:06;;;;;;;8.60;3.50;;;;;;;;;;4947815;28;20051;-72
2022/08/12 01:59:55;;;;;;;7.07;3.00;;;;;;;;;;4946913;28;20051;-72
2022/08/12 02:02:48;;;;;;;5.55;3.20;;;;;;;;;;4947014;28;20047;-72
2022/08/12 02:11:17;;;;;;;6.78;2.90;;;;;;;;;;4927586;29;20064;-72
2022/08/12 02:14:15;;;;;;;9.02;3.00;;;;;;;;;;4936574;29;20109;-72
2022/08/12 02:16:44;;;;;;;7.43;3.22;;;;;;;;;;4925701;29;20062;-72
2022/08/12 02:19:29;;;;;;;8.63;3.10;;;;;;;;;;4924995;29;20059;-70
2022/08/12 02:22:33;;;;;;;6.35;3.40;;;;;;;;;;4924342;29;20995;-71
2022/08/12 02:25:06;;;;;;;5.15;3.15;;;;;;;;;;4943002;29;20469;-71
2022/08/12 02:27:44;;;;;;;6.63;2.97;;;;;;;;;;4944127;29;20531;-71
2022/08/12 02:30:13;;;;;;;7.82;3.25;;;;;;;;;;4932437;29;20079;-71
2022/08/12 02:32:43;;;;;;;8.57;3.40;;;;;;;;;;4905559;29;20056;-72
2022/08/12 02:35:13;;;;;;;6.50;3.00;;;;;;;;;;4906523;29;20048;-70
2022/08/12 02:37:41;;;;;;;5.90;3.25;;;;;;;;;;4905149;29;20052;-72
2022/08/12 02:40:09;;;;;;;6.15;2.90;;;;;;;;;;4913766;29;20055;-70
2022/08/12 02:42:37;;;;;;;11.80;3.40;;;;;;;;;;4945070;29;20054;-70
2022/08/12 02:45:07;;;;;;;4.50;2.80;;;;;;;;;;4945120;29;20070;-71
2022/08/12 02:47:39;;;;;;;5.53;2.83;;;;;;;;;;4943843;29;20056;-72
2022/08/12 02:50:06;;;;;;;10.90;3.40;;;;;;;;;;4945561;29;20101;-70
2022/08/12 02:52:33;;;;;;;4.93;3.03;;;;;;;;;;4945331;28;20055;-70
2022/08/12 02:55:12;;;;;;;5.25;2.90;;;;;;;;;;4966459;28;20678;-72
2022/08/12 02:57:40;;;;;;;7.30;2.92;;;;;;;;;;4966057;28;20464;-71
2022/08/12 03:00:07;;;;;;;6.93;2.90;;;;;;;;;;4966131;28;20117;-71
2022/08/12 03:02:37;;;;;;;5.03;2.88;;;;;;;;;;4965792;28;20050;-70
2022/08/12 03:05:03;;;;;;;7.25;3.40;;;;;;;;;;4966368;28;20516;-70
2022/08/12 03:07:35;;;;;;;8.35;3.70;;;;;;;;;;4965676;28;20051;-71
2022/08/12 03:10:04;;;;;;;4.35;3.30;;;;;;;;;;4965487;28;20085;-72
2022/08/12 03:12:35;;;;;;;7.40;3.25;;;;;;;;;;4965290;28;20469;-71
2022/08/12 03:15:05;;;;;;;10.57;3.28;;;;;;;;;;4949204;28;20365;-70
2022/08/12 03:17:54;;;;;;;5.00;3.53;;;;;;;;;;4965064;28;20520;-71
2022/08/12 03:20:20;;;;;;;6.68;3.72;;;;;;;;;;4941337;28;20056;-69
2022/08/12 03:22:48;;;;;;;6.18;3.30;;;;;;;;;;4925854;29;20056;-71
2022/08/12 03:25:25;;;;;;;8.52;3.70;;;;;;;;;;4927606;29;20098;-69
2022/08/12 03:27:56;;;;;;;5.00;3.50;;;;;;;;;;4930002;29;20106;-71
2022/08/12 03:30:25;;;;;;;7.72;3.55;;;;;;;;;;4930697;29;20509;-70
2022/08/12 03:32:53;;;;;;;7.32;3.65;;;;;;;;;;4948613;28;20164;-70
2022/08/12 03:35:25;;;;;;;6.57;3.42;;;;;;;;;;4949518;28;20051;-70
2022/08/12 03:37:55;;;;;;;9.50;3.30;;;;;;;;;;4949347;28;20420;-70
2022/08/12 04:00:22;;;;;;;7.45;3.75;;;;;;;;;;4930176;29;20052;-71
2022/08/12 04:02:54;;;;;;;6.07;3.33;;;;;;;;;;4929798;29;20102;-71
2022/08/12 04:05:20;;;;;;;4.50;2.90;;;;;;;;;;4935969;28;20043;-71
2022/08/12 04:07:46;;;;;;;9.18;3.45;;;;;;;;;;4948692;28;20126;-71
2022/08/12 04:10:13;;;;;;;9.25;3.50;;;;;;;;;;4949644;28;20122;-70
2022/08/12 04:15:26;;;;;;;;;;;;;;;;;;4930657;29;20206;-70
2022/08/12 04:17:52;;;;;;;5.45;2.92;;;;;;;;;;4930960;28;19934;-69
2022/08/12 04:20:19;;;;;;;8.40;3.35;;;;;;;;;;4930486;29;20052;-70
2022/08/12 04:22:45;;;;;;;6.63;2.92;;;;;;;;;;4946608;28;20386;-71
2022/08/12 04:25:12;;;;;;;4.13;2.80;;;;;;;;;;4968509;28;20150;-71
2022/08/12 04:27:42;;;;;;;5.95;3.40;;;;;;;;;;4968416;28;20057;-71
2022/08/12 04:30:09;;;;;;;4.60;3.00;;;;;;;;;;4957120;28;20065;-71
2022/08/12 04:32:35;;;;;;;5.75;3.20;;;;;;;;;;4931227;29;20063;-71
2022/08/12 04:35:02;;;;;;;4.85;3.13;;;;;;;;;;4934326;29;20055;-70
2022/08/12 04:37:28;;;;;;;4.20;3.13;;;;;;;;;;4932042;29;20047;-71
2022/08/12 04:39:56;;;;;;;6.60;2.95;;;;;;;;;;4946521;28;20428;-71
2022/08/12 04:42:24;;;;;;;11.02;3.20;;;;;;;;;;4930464;29;20051;-70
2022/08/12 04:44:50;;;;;;;6.55;3.13;;;;;;;;;;4929985;29;20518;-74
2022/08/12 04:47:18;;;;;;;6.07;2.97;;;;;;;;;;4929148;29;20094;-70
2022/08/12 04:49:45;;;;;;;10.48;3.55;;;;;;;;;;4930222;29;20075;-70
2022/08/12 04:52:11;;;;;;;6.20;3.10;;;;;;;;;;4930263;29;20048;-70
2022/08/12 04:54:37;;;;;;;7.65;3.40;;;;;;;;;;4930479;29;20047;-72
2022/08/12 04:57:04;;;;;;;9.38;3.20;;;;;;;;;;4951912;28;20058;-71
2022/08/12 04:59:31;;;;;;;8.70;3.35;;;;;;;;;;4969439;28;20043;-70
2022/08/12 05:01:57;;;;;;;4.10;3.05;;;;;;;;;;4967702;28;20417;-71
2022/08/12 05:04:24;;;;;;;7.80;2.72;;;;;;;;;;4970765;28;20047;-70
2022/08/12 05:06:51;;;;;;;4.97;3.00;;;;;;;;;;4970526;28;20520;-69
2022/08/12 05:09:16;;;;;;;5.00;2.80;;;;;;;;;;4970494;28;20058;-72
2022/08/12 05:11:46;;;;;;;5.93;3.40;;;;;;;;;;4969599;28;20058;-70
2022/08/12 05:14:12;;;;;;;5.97;2.97;;;;;;;;;;4957219;28;20053;-73
2022/08/12 05:16:38;;;;;;;5.97;3.35;;;;;;;;;;4949748;28;20051;-72
2022/08/12 05:19:05;;;;;;;7.53;3.38;;;;;;;;;;4948064;28;20300;-71
2022/08/12 05:21:31;;;;;;;6.88;3.38;;;;;;;;;;4929088;29;20334;-71
2022/08/12 05:23:57;;;;;;;6.03;2.80;;;;;;;;;;4940721;29;20413;-73
2022/08/12 05:26:23;;;;;;;8.32;3.35;;;;;;;;;;4950466;28;20413;-71
2022/08/12 05:28:52;;;;;;;9.35;3.78;;;;;;;;;;4949635;28;20050;-71
2022/08/12 05:31:19;;;;;;;7.50;3.50;;;;;;;;;;4962359;28;20542;-71
2022/08/12 05:33:46;;;;;;;9.23;3.95;;;;;;;;;;4970209;28;20051;-72
2022/08/12 05:36:14;;;;;;;10.93;3.58;;;;;;;;;;4967569;28;20051;-71
2022/08/12 05:38:58;;;;;;;7.25;3.55;;;;;;;;;;4967560;28;20050;-71
2022/08/12 05:41:28;;;;;;;16.63;3.85;;;;;;;;;;4967287;28;20685;-71
2022/08/12 05:43:57;;;;;;;8.60;3.55;;;;;;;;;;4968098;28;20500;-70
2022/08/12 05:46:24;;;;;;;12.13;3.92;;;;;;;;;;4965984;28;20386;-71
2022/08/12 05:48:53;;;;;;;7.72;3.67;;;;;;;;;;4966522;28;20047;-71
2022/08/12 05:51:23;;;;;;;6.75;3.75;;;;;;;;;;4967036;28;20474;-73
2022/08/12 05:53:51;;;;;;;9.70;4.00;;;;;;;;;;4970722;28;20050;-72
2022/08/12 05:56:22;;;;;;;13.85;3.85;;;;;;;;;;4972110;28;20496;-74
2022/08/12 05:58:50;;;;;;;8.15;3.83;;;;;;;;;;4957823;28;20051;-71
2022/08/12 06:01:16;;;;;;;13.93;3.95;;;;;;;;;;4949832;28;20051;-72
2022/08/12 06:03:43;;;;;;;10.10;3.90;;;;;;;;;;4953353;28;20385;-70
2022/08/12 06:06:09;;;;;;;12.40;4.05;;;;;;;;;;4949107;28;20054;-72
2022/08/12 06:08:35;;;;;;;11.10;3.83;;;;;;;;;;4949981;28;20142;-71
2022/08/12 06:11:03;;;;;;;8.68;3.58;;;;;;;;;;4950449;28;20102;-70
2022/08/12 06:13:30;;;;;;;15.45;4.38;;;;;;;;;;4951078;28;20059;-72
2022/08/12 06:15:56;;;;;;;11.13;4.07;;;;;;;;;;4951492;28;20051;-70
2022/08/12 06:18:22;;;;;;;12.60;4.18;;;;;;;;;;4950016;28;20124;-73
2022/08/12 06:20:48;;;;;;;17.60;4.25;;;;;;;;;;4951229;28;20059;-75
2022/08/12 06:23:15;;;;;;;7.97;4.45;;;;;;;;;;4969116;28;20055;-71
2022/08/12 06:25:45;;;;;;;17.35;4.90;;;;;;;;;;4968675;28;20051;-73
2022/08/12 06:28:19;;;;;;;16.30;5.50;;;;;;;;;;4969763;28;20054;-71
2022/08/12 06:30:45;;;;;;;13.05;5.47;;;;;;;;;;4967511;28;20097;-75
2022/08/12 06:33:12;;;;;;;13.02;5.88;;;;;;;;;;4967201;28;20086;-71
2022/08/12 06:35:41;;;;;;;19.48;5.68;;;;;;;;;;4966243;28;20156;-71
2022/08/12 06:38:20;;;;;;;9.48;5.07;;;;;;;;;;4965179;28;20050;-71
2022/08/12 06:43:39;;;;;;;21.10;5.28;;;;;;;;;;4966151;28;20378;-74
2022/08/12 06:46:05;;;;;;;13.77;4.63;;;;;;;;;;4967821;28;20133;-70
2022/08/12 06:48:31;;;;;;;10.55;4.72;;;;;;;;;;4945168;28;20130;-71
2022/08/12 06:50:58;;;;;;;10.85;4.60;;;;;;;;;;4931596;29;20429;-74
2022/08/12 06:53:25;;;;;;;10.55;4.82;;;;;;;;;;4930532;29;20302;-71
2022/08/12 06:55:55;;;;;;;13.57;4.82;;;;;;;;;;4947111;28;20408;-72
2022/08/12 06:58:23;;;;;;;24.63;5.25;;;;;;;;;;4966709;28;20351;-70
2022/08/12 07:00:49;;;;;;;13.20;6.03;;;;;;;;;;4970992;28;20062;-72
2022/08/12 07:03:24;;;;;;;17.02;6.25;;;;;;;;;;4972938;28;20050;-71
2022/08/12 07:05:50;;;;;;;10.43;5.30;;;;;;;;;;4970731;28;20206;-71
2022/08/12 07:08:17;;;;;;;17.50;4.63;;;;;;;;;;4971495;28;20050;-72
2022/08/12 07:10:57;;;;;;;8.48;4.00;;;;;;;;;;4973754;28;20412;-73
2022/08/12 07:13:27;;;;;;;13.38;3.40;;;;;;;;;;4971665;28;20057;-73
2022/08/12 07:15:55;;;;;;;9.25;3.28;;;;;;;;;;4973777;28;20050;-70
2022/08/12 07:18:27;;;;;;;9.27;3.25;;;;;;;;;;4968048;28;20508;-70
2022/08/12 07:20:53;;;;;;;9.00;3.30;;;;;;;;;;4932549;29;20043;-72
2022/08/12 07:23:19;;;;;;;10.38;3.60;;;;;;;;;;4932881;29;20051;-74
2022/08/12 07:25:45;;;;;;;9.45;3.50;;;;;;;;;;4931521;29;20188;-71
2022/08/12 07:28:17;;;;;;;6.10;3.28;;;;;;;;;;4931441;29;20194;-70
2022/08/12 07:30:45;;;;;;;12.65;3.15;;;;;;;;;;4962061;28;20053;-73
2022/08/12 07:33:12;;;;;;;9.00;3.13;;;;;;;;;;4969428;28;20050;-71
2022/08/12 07:35:44;;;;;;;16.42;3.20;;;;;;;;;;4968924;28;20051;-70
2022/08/12 07:38:26;;;;;;;8.23;3.03;;;;;;;;;;4956611;28;20131;-72
2022/08/12 07:41:14;;;;;;;10.90;3.38;;;;;;;;;;4949738;28;20074;-73
2022/08/12 07:43:52;;;;;;;7.32;3.45;;;;;;;;;;4950612;28;20059;-73
2022/08/12 07:46:22;;;;;;;14.23;3.35;;;;;;;;;;4955393;28;20081;-73
2022/08/12 07:48:51;;;;;;;11.52;2.95;;;;;;;;;;4969881;28;20058;-74
2022/08/12 07:51:18;;;;;;;17.10;3.40;;;;;;;;;;4969078;28;20130;-72
2022/08/12 07:53:45;;;;;;;9.82;3.53;;;;;;;;;;4968594;28;20109;-72
2022/08/12 07:56:11;;;;;;;14.38;3.65;;;;;;;;;;4968596;28;20412;-72
2022/08/12 07:58:38;;;;;;;9.77;2.80;;;;;;;;;;4969975;28;20050;-73
2022/08/12 08:01:10;;;;;;;12.57;3.05;;;;;;;;;;4970187;28;20264;-73
2022/08/12 08:03:37;;;;;;;15.40;3.78;;;;;;;;;;4962509;28;20051;-73
2022/08/12 08:06:15;;;;;;;13.10;3.25;;;;;;;;;;4949108;28;20137;-74
2022/08/12 08:08:41;;;;;;;11.88;3.20;;;;;;;;;;4948993;28;20051;-73
2022/08/12 08:13:51;;;;;;;14.68;2.92;;;;;;;;;;4949159;29;20134;-72
2022/08/12 08:16:16;;;;;;;11.90;3.00;;;;;;;;;;4948917;28;20134;-72
2022/08/12 08:18:42;;;;;;;15.65;3.08;;;;;;;;;;4949397;28;20047;-74
2022/08/12 08:21:09;;;;;;;9.70;2.80;;;;;;;;;;4948702;28;20070;-71
2022/08/12 08:24:36;;;;;;;9.70;2.90;;;;;;;;;;4947846;29;20051;-73
2022/08/12 08:26:31;;;;;;;8.40;2.88;;;;;;;;;;4952423;28;20486;-71
2022/08/12 08:28:58;;;;;;;13.07;3.20;;;;;;;;;;4947851;29;20082;-73
2022/08/12 08:31:24;;;;;;;13.48;3.88;;;;;;;;;;4948747;28;20496;-72
2022/08/12 08:33:50;;;;;;;14.95;4.03;;;;;;;;;;4949429;28;20055;-73
2022/08/12 08:36:16;;;;;;;16.30;4.00;;;;;;;;;;4949542;28;20047;-74
2022/08/12 08:38:44;;;;;;;18.63;4.15;;;;;;;;;;4964727;28;20047;-72
2022/08/12 08:43:58;;;;;;;15.77;4.72;;;;;;;;;;4968615;28;20091;-74
2022/08/12 08:46:26;;;;;;;19.15;4.47;;;;;;;;;;4969247;28;20432;-73
2022/08/12 08:48:52;;;;;;;18.25;4.30;;;;;;;;;;4969017;28;20182;-76
2022/08/12 08:51:18;;;;;;;14.27;3.97;;;;;;;;;;4968541;28;20146;-73
2022/08/12 08:53:44;;;;;;;10.77;4.13;;;;;;;;;;4967620;28;20070;-70
2022/08/12 08:56:10;;;;;;;13.52;3.50;;;;;;;;;;4948098;28;20151;-72
2022/08/12 08:58:39;;;;;;;10.27;3.28;;;;;;;;;;4948718;28;20109;-72
2022/08/12 09:01:05;;;;;;;10.45;3.63;;;;;;;;;;4948595;28;20444;-72
2022/08/12 09:03:34;;;;;;;9.45;3.67;;;;;;;;;;4947432;29;20269;-72
2022/08/12 09:06:01;;;;;;;11.93;4.03;;;;;;;;;;4948185;28;20047;-71
2022/08/12 09:08:28;;;;;;;13.05;3.65;;;;;;;;;;4948606;28;20131;-73
2022/08/12 09:13:26;;;;;;;13.00;3.83;;;;;;;;;;4949430;28;20117;-71
2022/08/12 09:13:43;;;;;;;8.23;3.67;;;;;;;;;;4935369;28;20432;-73
2022/08/12 09:16:09;;;;;;;8.15;3.53;;;;;;;;;;4929421;29;20051;-71
2022/08/12 09:18:34;;;;;;;10.07;3.47;;;;;;;;;;4930390;29;20690;-71
2022/08/12 09:21:02;;;;;;;10.27;3.10;;;;;;;;;;4943717;29;20073;-71
2022/08/12 09:23:29;;;;;;;12.57;3.55;;;;;;;;;;4951452;28;20047;-76
2022/08/12 09:25:55;;;;;;;10.57;3.50;;;;;;;;;;4949100;28;20062;-75
2022/08/12 09:28:25;;;;;;;9.93;3.10;;;;;;;;;;4949313;28;20055;-72
2022/08/12 09:30:52;;;;;;;8.50;3.38;;;;;;;;;;4950517;28;20086;-72
2022/08/12 09:33:18;;;;;;;5.38;3.20;;;;;;;;;;4951528;28;20057;-71
2022/08/12 09:35:44;;;;;;;7.68;3.47;;;;;;;;;;4950945;28;20126;-73
2022/08/12 09:38:16;;;;;;;11.25;3.25;;;;;;;;;;4949255;28;20620;-72
2022/08/12 09:40:43;;;;;;;6.93;3.22;;;;;;;;;;4948723;28;20062;-72
2022/08/12 09:45:56;;;;;;;6.28;2.80;;;;;;;;;;4958100;28;20065;-72
2022/08/12 09:48:22;;;;;;;8.55;3.30;;;;;;;;;;4967430;28;20046;-73
2022/08/12 09:50:49;;;;;;;10.85;2.65;;;;;;;;;;4966564;28;20454;-75
2022/08/12 09:53:22;;;;;;;7.30;2.65;;;;;;;;;;4966508;28;20047;-72
2022/08/12 09:55:53;;;;;;;5.60;2.90;;;;;;;;;;4966699;28;20055;-72
2022/08/12 09:58:27;;;;;;;7.82;2.92;;;;;;;;;;4966784;28;20507;-71
2022/08/12 10:01:05;;;;;;;5.63;2.47;;;;;;;;;;4966936;28;20057;-70
2022/08/12 10:03:33;;;;;;;7.30;2.80;;;;;;;;;;4966010;28;20551;-71
2022/08/12 10:06:00;;;;;;;7.57;2.67;;;;;;;;;;4961161;28;20051;-75
2022/08/12 10:08:31;;;;;;;8.23;2.60;;;;;;;;;;4951477;28;20125;-73
2022/08/12 10:13:45;;;;;;;7.15;2.50;;;;;;;;;;4947610;28;20051;-72
2022/08/12 10:16:16;;;;;;;4.03;2.33;;;;;;;;;;4947399;28;20051;-72
2022/08/12 10:18:49;;;;;;;6.75;2.88;;;;;;;;;;4947890;28;20122;-72
2022/08/12 10:21:20;;;;;;;11.32;3.13;;;;;;;;;;4928947;29;20391;-71
2022/08/12 10:23:48;;;;;;;9.20;2.88;;;;;;;;;;4928689;29;20039;-75
2022/08/12 10:31:49;;;;;;;10.00;2.80;;;;;;;;;;4929207;29;20753;-73
2022/08/12 10:34:18;;;;;;;12.93;3.53;;;;;;;;;;4931510;29;20052;-77
2022/08/12 10:36:45;;;;;;;12.38;3.30;;;;;;;;;;4943179;28;20501;-74
2022/08/12 10:39:13;;;;;;;11.80;3.30;;;;;;;;;;4955117;28;20047;-73
2022/08/12 10:44:23;;;;;;;5.38;2.72;;;;;;;;;;4953753;29;20136;-71
2022/08/12 10:46:54;;;;;;;6.75;2.83;;;;;;;;;;4954033;28;20110;-72
2022/08/12 10:49:27;;;;;;;5.18;2.80;;;;;;;;;;4953254;28;20054;-74
2022/08/12 10:51:54;;;;;;;;;;;;;;;;;;4953388;28;20078;-71
2022/08/12 10:54:21;;;;;;;7.97;2.70;;;;;;;;;;4966449;28;19929;-72
2022/08/12 10:56:48;;;;;;;8.38;3.00;;;;;;;;;;4936528;28;20071;-71
2022/08/12 10:59:15;;;;;;;7.57;2.90;;;;;;;;;;4934235;29;20051;-72
2022/08/12 11:01:41;;;;;;;11.00;2.75;;;;;;;;;;4936789;29;20051;-74
2022/08/12 11:04:12;;;;;;;11.65;3.00;;;;;;;;;;4938954;29;20051;-75
2022/08/12 11:06:46;;;;;;;10.70;3.25;;;;;;;;;;4936502;29;20047;-76
2022/08/12 11:09:19;;;;;;;;;;;;;;;;;;4935652;29;20062;-73
2022/08/12 11:11:49;;;;;;;8.25;2.70;;;;;;;;;;4961096;28;19927;-73
2022/08/12 11:14:30;;;;;;;6.93;3.10;;;;;;;;;;4953757;28;20050;-74
2022/08/12 11:17:16;;;;;;;6.55;2.60;;;;;;;;;;4953397;28;20048;-70
2022/08/12 11:19:44;;;;;;;6.25;2.58;;;;;;;;;;4953515;28;20168;-73
2022/08/12 11:22:10;;;;;;;7.97;2.90;;;;;;;;;;4952270;28;20055;-72
2022/08/12 11:24:37;;;;;;;5.43;2.58;;;;;;;;;;4953154;28;20079;-72
2022/08/12 11:27:05;;;;;;;8.73;2.70;;;;;;;;;;4953902;28;20065;-73
2022/08/12 11:29:32;;;;;;;5.95;2.47;;;;;;;;;;4953778;28;20043;-72
2022/08/12 11:31:58;;;;;;;6.95;2.45;;;;;;;;;;4956189;28;20054;-73
2022/08/12 11:34:24;;;;;;;8.13;2.33;;;;;;;;;;4954681;28;20047;-73
2022/08/12 11:36:50;;;;;;;9.50;2.47;;;;;;;;;;4953050;28;20484;-71
2022/08/12 11:39:17;;;;;;;8.55;2.50;;;;;;;;;;4952899;28;20051;-72
2022/08/12 11:41:42;;;;;;;5.82;2.60;;;;;;;;;;4954550;28;20158;-72
2022/08/12 11:44:08;;;;;;;7.93;2.53;;;;;;;;;;4950711;28;20370;-71
2022/08/12 11:46:37;;;;;;;15.73;2.60;;;;;;;;;;4934750;29;20906;-71
2022/08/12 11:49:04;;;;;;;6.05;2.55;;;;;;;;;;4933170;29;20487;-72
2022/08/12 11:51:31;;;;;;;7.45;2.33;;;;;;;;;;4932122;29;20044;-72
2022/08/12 11:53:57;;;;;;;7.00;2.70;;;;;;;;;;4931054;29;20064;-73
2022/08/12 11:56:23;;;;;;;5.88;2.40;;;;;;;;;;4930917;29;20051;-71
2022/08/12 11:58:49;;;;;;;8.10;2.30;;;;;;;;;;4930330;29;20068;-72
2022/08/12 12:01:16;;;;;;;5.38;2.58;;;;;;;;;;4934872;28;20053;-72
2022/08/12 12:03:42;;;;;;;7.13;2.15;;;;;;;;;;4949112;28;20493;-71
2022/08/12 12:06:08;;;;;;;6.63;2.28;;;;;;;;;;4948534;28;20400;-72
2022/08/12 12:08:34;;;;;;;6.07;2.20;;;;;;;;;;4949146;28;20047;-76
2022/08/12 12:11:00;;;;;;;5.70;2.17;;;;;;;;;;4949186;28;20039;-71
2022/08/12 12:13:26;;;;;;;7.20;2.40;;;;;;;;;;4949887;28;20055;-73
2022/08/12 12:15:52;;;;;;;5.90;2.33;;;;;;;;;;4949951;28;20055;-73
2022/08/12 12:18:26;;;;;;;5.85;2.03;;;;;;;;;;4954315;28;20511;-72
2022/08/12 12:20:54;;;;;;;5.60;2.05;;;;;;;;;;4968068;28;20051;-75
2022/08/12 12:23:20;;;;;;;6.65;2.20;;;;;;;;;;4941126;28;20059;-77
2022/08/12 12:25:46;;;;;;;6.20;2.20;;;;;;;;;;4931671;29;20048;-73
2022/08/12 12:28:13;;;;;;;8.07;2.08;;;;;;;;;;4930890;29;20059;-73
2022/08/12 12:30:39;;;;;;;5.75;2.25;;;;;;;;;;4930176;29;20079;-71
2022/08/12 12:33:06;;;;;;;4.05;1.90;;;;;;;;;;4930522;29;20130;-73
2022/08/12 12:35:33;;;;;;;4.35;2.25;;;;;;;;;;4954971;28;20050;-71
2022/08/12 12:38:05;;;;;;;13.18;3.10;;;;;;;;;;4955067;28;20047;-72
2022/08/12 12:40:31;;;;;;;5.93;2.20;;;;;;;;;;4950305;28;20118;-72
2022/08/12 12:42:58;;;;;;;5.22;2.15;;;;;;;;;;4949292;28;20055;-73
2022/08/12 12:45:25;;;;;;;9.82;2.35;;;;;;;;;;4950087;28;20053;-72
2022/08/12 12:48:09;;;;;;;6.10;2.30;;;;;;;;;;4951592;28;20062;-73
2022/08/12 12:50:36;;;;;;;;;;;;;;;;;;4950796;28;20051;-73
2022/08/12 12:53:07;;;;;;;9.60;2.30;;;;;;;;;;4951028;28;19923;-75
2022/08/12 12:55:36;;;;;;;8.30;2.60;;;;;;;;;;4949174;28;20560;-73
2022/08/12 12:58:04;;;;;;;6.57;2.20;;;;;;;;;;4948152;28;20073;-75
2022/08/12 13:00:31;;;;;;;7.57;2.22;;;;;;;;;;4950427;28;20241;-74
2022/08/12 13:02:58;;;;;;;5.32;2.30;;;;;;;;;;4950729;28;20110;-73
2022/08/12 13:05:35;;;;;;;5.22;2.08;;;;;;;;;;4949608;29;20512;-74
2022/08/12 13:08:16;;;;;;;8.52;2.28;;;;;;;;;;4950122;28;20047;-74
2022/08/12 13:10:42;;;;;;;7.43;2.60;;;;;;;;;;4946441;28;20235;-73
2022/08/12 13:13:07;;;;;;;6.63;2.47;;;;;;;;;;4932284;29;20047;-72
2022/08/12 13:15:33;;;;;;;7.57;2.42;;;;;;;;;;4931473;29;20048;-74
2022/08/12 13:18:04;;;;;;;10.13;2.53;;;;;;;;;;4930453;29;20059;-75
2022/08/12 13:20:30;;;;;;;6.03;2.30;;;;;;;;;;4929689;29;20047;-73
2022/08/12 13:22:56;;;;;;;9.18;2.28;;;;;;;;;;4929509;29;20106;-73
2022/08/12 13:25:23;;;;;;;5.40;2.17;;;;;;;;;;4929161;29;20047;-72
2022/08/12 13:27:49;;;;;;;8.82;2.28;;;;;;;;;;4947563;28;20113;-73
2022/08/12 13:30:22;;;;;;;7.93;2.30;;;;;;;;;;4948289;28;20397;-74
2022/08/12 13:32:52;;;;;;;5.53;2.45;;;;;;;;;;4948249;28;20111;-73
2022/08/12 13:35:18;;;;;;;6.03;2.30;;;;;;;;;;4948211;28;20066;-73
2022/08/12 13:37:52;;;;;;;6.95;2.45;;;;;;;;;;4947070;28;20493;-74
2022/08/12 13:40:20;;;;;;;6.18;2.10;;;;;;;;;;4949026;28;20130;-73
2022/08/12 13:42:48;;;;;;;7.60;2.60;;;;;;;;;;4950356;28;20051;-73
2022/08/12 13:45:15;;;;;;;6.80;2.67;;;;;;;;;;4968961;28;20130;-73
2022/08/12 13:47:56;;;;;;;11.35;2.72;;;;;;;;;;4967614;28;20125;-72
2022/08/12 13:50:31;;;;;;;6.15;2.70;;;;;;;;;;4968736;28;20046;-71
2022/08/12 13:53:03;;;;;;;6.72;2.53;;;;;;;;;;4966113;28;20043;-72
2022/08/12 13:55:29;;;;;;;8.05;2.78;;;;;;;;;;4967137;28;20074;-72
2022/08/12 13:57:56;;;;;;;7.55;2.78;;;;;;;;;;4969399;28;20043;-73
2022/08/12 14:00:25;;;;;;;10.57;2.85;;;;;;;;;;4965056;28;20478;-73
2022/08/12 14:02:51;;;;;;;7.28;2.42;;;;;;;;;;4951396;28;20082;-74
2022/08/12 14:05:18;;;;;;;8.32;2.60;;;;;;;;;;4950291;28;20058;-71
2022/08/12 14:07:51;;;;;;;11.60;2.70;;;;;;;;;;4947607;28;20375;-75
2022/08/12 14:10:35;;;;;;;7.43;2.72;;;;;;;;;;4939762;28;20123;-75
2022/08/12 14:13:11;;;;;;;10.80;2.80;;;;;;;;;;4929043;29;20056;-73
2022/08/12 14:15:42;;;;;;;8.98;2.60;;;;;;;;;;4931332;29;20122;-72
2022/08/12 14:18:11;;;;;;;15.02;3.20;;;;;;;;;;4944765;28;20055;-72
2022/08/12 14:20:38;;;;;;;12.90;2.95;;;;;;;;;;4949995;28;20050;-72
2022/08/12 14:23:05;;;;;;;9.52;2.90;;;;;;;;;;4948827;28;20050;-74
2022/08/12 14:25:31;;;;;;;7.55;2.45;;;;;;;;;;4948244;28;20051;-72
2022/08/12 14:28:10;;;;;;;10.13;2.42;;;;;;;;;;4947938;28;20047;-71
2022/08/12 14:30:52;;;;;;;6.38;2.45;;;;;;;;;;4948198;28;20109;-73
2022/08/12 14:33:20;;;;;;;8.80;2.50;;;;;;;;;;4948711;28;20079;-74
2022/08/12 14:35:48;;;;;;;10.48;2.47;;;;;;;;;;4963592;28;20285;-76
2022/08/12 14:38:24;;;;;;;15.30;3.00;;;;;;;;;;4966727;28;20505;-72
2022/08/12 14:41:01;;;;;;;8.18;2.70;;;;;;;;;;4965890;28;20047;-73
2022/08/12 14:43:32;;;;;;;6.82;2.60;;;;;;;;;;4966340;28;20548;-73
2022/08/12 14:46:02;;;;;;;11.88;2.60;;;;;;;;;;4966157;28;20062;-72
2022/08/12 14:48:28;;;;;;;5.47;2.47;;;;;;;;;;4966954;28;20051;-73
2022/08/12 14:50:54;;;;;;;5.32;2.75;;;;;;;;;;4959018;28;20060;-73
2022/08/12 14:53:22;;;;;;;7.40;2.67;;;;;;;;;;4966875;28;20055;-71
2022/08/12 14:55:48;;;;;;;14.95;2.88;;;;;;;;;;4953631;28;20055;-74
2022/08/12 14:58:18;;;;;;;14.18;2.70;;;;;;;;;;4948774;28;20074;-73
2022/08/12 15:03:31;;;;;;;11.32;2.15;;;;;;;;;;4946989;28;20155;-76
2022/08/12 15:06:02;;;;;;;14.65;2.50;;;;;;;;;;4947335;28;20273;-74
2022/08/12 15:08:33;;;;;;;9.57;2.40;;;;;;;;;;4947243;28;20134;-72
2022/08/12 15:11:01;;;;;;;10.00;2.50;;;;;;;;;;4947144;28;20043;-72
2022/08/12 15:13:30;;;;;;;8.65;2.28;;;;;;;;;;4947168;28;20051;-71
2022/08/12 15:15:57;;;;;;;6.72;2.20;;;;;;;;;;4946588;28;20277;-72
2022/08/12 15:18:24;;;;;;;12.63;2.55;;;;;;;;;;4946829;28;20051;-72
2022/08/12 15:20:51;;;;;;;10.13;2.30;;;;;;;;;;4948393;28;20051;-73
2022/08/12 15:23:19;;;;;;;10.82;2.60;;;;;;;;;;4951213;28;20047;-71
2022/08/12 15:25:46;;;;;;;7.45;2.40;;;;;;;;;;4959484;28;20055;-73
2022/08/12 15:28:16;;;;;;;7.68;2.42;;;;;;;;;;4970337;28;20081;-72
2022/08/12 15:30:42;;;;;;;8.55;2.45;;;;;;;;;;4971931;28;20326;-73
2022/08/12 15:33:08;;;;;;;6.25;2.25;;;;;;;;;;4971538;28;20659;-72
2022/08/12 15:35:36;;;;;;;9.60;2.80;;;;;;;;;;4970024;28;20713;-73
2022/08/12 15:38:07;;;;;;;6.88;2.50;;;;;;;;;;4969070;28;20054;-74
2022/08/12 15:40:34;;;;;;;5.63;2.20;;;;;;;;;;4956162;28;20062;-72
2022/08/12 15:43:04;;;;;;;10.80;2.85;;;;;;;;;;4951964;28;20047;-73
2022/08/12 15:45:32;;;;;;;7.13;2.28;;;;;;;;;;4969410;28;20125;-72
2022/08/12 15:47:58;;;;;;;8.52;2.25;;;;;;;;;;4969531;28;20504;-71
2022/08/12 15:50:26;;;;;;;5.38;2.30;;;;;;;;;;4969747;28;20126;-74
2022/08/12 15:52:54;;;;;;;6.30;2.30;;;;;;;;;;4968392;28;20050;-72
2022/08/12 15:55:23;;;;;;;14.77;2.90;;;;;;;;;;4969335;28;20058;-71
2022/08/12 15:57:53;;;;;;;8.00;2.63;;;;;;;;;;4971825;28;20051;-73
2022/08/12 16:00:23;;;;;;;9.45;2.80;;;;;;;;;;4969732;28;20046;-74
2022/08/12 16:02:50;;;;;;;9.25;2.47;;;;;;;;;;4969118;28;20054;-75
2022/08/12 16:05:22;;;;;;;10.93;2.40;;;;;;;;;;4969842;28;20054;-72
2022/08/12 16:07:49;;;;;;;10.98;2.58;;;;;;;;;;4962579;28;20075;-72
2022/08/12 16:10:17;;;;;;;5.07;2.80;;;;;;;;;;4949245;28;20055;-71
2022/08/12 16:12:49;;;;;;;8.07;2.60;;;;;;;;;;4950680;28;20055;-76
2022/08/12 16:15:16;;;;;;;9.38;2.65;;;;;;;;;;4953839;28;20106;-73
2022/08/12 16:17:45;;;;;;;7.28;2.80;;;;;;;;;;4970060;28;20054;-76
2022/08/12 16:20:21;;;;;;;11.65;2.80;;;;;;;;;;4971531;28;20045;-74
2022/08/12 16:22:58;;;;;;;8.93;2.70;;;;;;;;;;4958268;28;20437;-76
2022/08/12 16:25:26;;;;;;;5.93;2.50;;;;;;;;;;4949097;29;20401;-72
2022/08/12 16:27:53;;;;;;;10.52;2.70;;;;;;;;;;4949144;28;20045;-72
2022/08/12 16:30:28;;;;;;;9.65;2.67;;;;;;;;;;4948982;28;20193;-74
2022/08/12 16:32:56;;;;;;;3.97;2.22;;;;;;;;;;4949795;28;20063;-72
2022/08/12 16:35:23;;;;;;;9.88;2.50;;;;;;;;;;4968121;28;20109;-70
2022/08/12 16:37:50;;;;;;;15.90;3.03;;;;;;;;;;4967014;28;20517;-73
2022/08/12 16:40:16;;;;;;;13.88;3.00;;;;;;;;;;4966987;28;20563;-71